createdAt,value
2023-04-03T00:01:39.261Z,3.75
2023-04-03T00:05:21.311Z,3.70
2023-04-03T00:09:03.377Z,3.75
2023-04-03T00:12:45.277Z,3.88
2023-04-03T00:16:27.069Z,3.55
2023-04-03T00:20:09.386Z,3.80
2023-04-03T00:23:51.287Z,3.75
2023-04-03T00:27:33.143Z,3.63
2023-04-03T00:31:17.987Z,4.20
2023-04-03T00:34:59.815Z,3.83
2023-04-03T00:38:41.609Z,3.38
2023-04-03T00:42:23.735Z,3.90
2023-04-03T00:46:05.579Z,3.70
2023-04-03T00:49:48.593Z,3.45
2023-04-03T00:53:34.881Z,3.65
2023-04-03T00:57:17.663Z,3.45
2023-04-03T01:01:00.955Z,3.35
2023-04-03T01:04:44.679Z,3.80
2023-04-03T01:08:26.592Z,3.30
2023-04-03T01:12:36.430Z,3.83
2023-04-03T01:16:18.314Z,3.78
2023-04-03T01:20:12.517Z,3.50
2023-04-03T01:24:18.066Z,3.60
2023-04-03T01:28:00.117Z,3.47
2023-04-03T01:31:59.526Z,3.33
2023-04-03T01:35:41.320Z,2.97
2023-04-03T01:39:23.228Z,3.47
2023-04-03T01:43:05.037Z,3.10
2023-04-03T01:46:47.353Z,3.28
2023-04-03T01:50:29.073Z,3.47
2023-04-03T01:54:11.188Z,3.65
2023-04-03T01:57:52.941Z,3.08
2023-04-03T02:01:34.822Z,3.10
2023-04-03T02:05:16.715Z,3.45
2023-04-03T02:08:58.417Z,3.33
2023-04-03T02:12:40.277Z,2.97
2023-04-03T02:16:22.037Z,3.50
2023-04-03T02:20:04.569Z,3.22
2023-04-03T02:23:46.333Z,3.10
2023-04-03T02:27:28.300Z,3.78
2023-04-03T02:31:11.681Z,3.30
2023-04-03T02:34:53.449Z,3.50
2023-04-03T02:38:36.282Z,3.50
2023-04-03T02:42:18.087Z,3.42
2023-04-03T02:46:00.368Z,2.72
2023-04-03T02:49:42.203Z,2.88
2023-04-03T02:53:24.478Z,2.97
2023-04-03T02:57:06.886Z,3.42
2023-04-03T03:00:48.619Z,3.10
2023-04-03T03:04:30.558Z,3.35
2023-04-03T03:08:12.281Z,3.58
2023-04-03T03:11:54.177Z,3.38
2023-04-03T03:15:36.120Z,2.97
2023-04-03T03:19:17.820Z,3.25
2023-04-03T03:22:59.564Z,3.47
2023-04-03T03:26:41.345Z,3.58
2023-04-03T03:30:23.162Z,3.25
2023-04-03T03:34:04.914Z,3.92
2023-04-03T03:37:46.707Z,3.58
2023-04-03T03:41:28.712Z,3.38
2023-04-03T03:45:11.008Z,3.33
2023-04-03T03:48:52.870Z,3.50
2023-04-03T03:52:34.626Z,3.25
2023-04-03T03:56:16.475Z,3.97
2023-04-03T03:59:58.176Z,3.28
2023-04-03T04:03:39.978Z,3.42
2023-04-03T04:07:21.704Z,3.80
2023-04-03T04:11:03.495Z,3.70
2023-04-03T04:14:47.631Z,3.35
2023-04-03T04:18:29.324Z,3.80
2023-04-03T04:22:11.048Z,5.03
2023-04-03T04:25:52.847Z,4.60
2023-04-03T04:29:36.770Z,4.50
2023-04-03T04:33:18.474Z,4.20
2023-04-03T04:37:00.377Z,4.07
2023-04-03T04:40:42.529Z,3.60
2023-04-03T04:44:24.234Z,3.42
2023-04-03T04:48:06.117Z,3.65
2023-04-03T04:51:51.917Z,3.20
2023-04-03T04:55:34.394Z,3.00
2023-04-03T04:59:16.420Z,3.38
2023-04-03T05:02:58.160Z,3.60
2023-04-03T05:06:39.978Z,6.72
2023-04-03T05:10:21.708Z,3.63
2023-04-03T05:14:06.304Z,3.90
2023-04-03T05:17:48.127Z,3.15
2023-04-03T05:21:33.122Z,2.63
2023-04-03T05:25:15.068Z,3.67
2023-04-03T05:28:57.087Z,3.63
2023-04-03T05:32:38.889Z,3.05
2023-04-03T05:36:20.619Z,3.50
2023-04-03T05:40:03.102Z,3.83
2023-04-03T05:43:44.854Z,3.33
2023-04-03T05:47:26.620Z,3.47
2023-04-03T05:51:14.475Z,4.25
2023-04-03T05:54:56.459Z,4.00
2023-04-03T05:58:38.306Z,3.45
2023-04-03T06:02:22.535Z,3.50
2023-04-03T06:06:05.958Z,3.40
2023-04-03T06:09:48.585Z,3.90
2023-04-03T06:13:30.495Z,3.95
2023-04-03T06:17:13.219Z,4.43
2023-04-03T06:20:55.044Z,4.10
2023-04-03T06:24:36.980Z,3.85
2023-04-03T06:28:20.270Z,4.63
2023-04-03T06:32:02.019Z,4.00
2023-04-03T06:35:43.719Z,4.07
2023-04-03T06:39:25.541Z,3.90
2023-04-03T06:43:08.208Z,3.50
2023-04-03T06:46:50.018Z,3.88
2023-04-03T06:50:32.026Z,5.80
2023-04-03T06:54:13.732Z,4.15
2023-04-03T06:57:55.531Z,3.63
2023-04-03T07:01:37.419Z,3.65
2023-04-03T07:05:19.411Z,3.63
2023-04-03T07:09:01.553Z,4.35
2023-04-03T07:12:43.498Z,4.13
2023-04-03T07:16:25.308Z,3.50
2023-04-03T07:20:08.201Z,3.67
2023-04-03T07:27:36.515Z,3.92
2023-04-03T07:31:19.445Z,3.75
2023-04-03T07:35:02.371Z,3.67
2023-04-03T07:38:44.672Z,3.70
2023-04-03T07:42:28.835Z,3.65
2023-04-03T07:46:10.822Z,3.13
2023-04-03T07:49:52.650Z,3.55
2023-04-03T07:53:34.764Z,3.03
2023-04-03T07:57:17.602Z,2.83
2023-04-03T08:01:00.739Z,2.95
2023-04-03T08:04:42.842Z,3.15
2023-04-03T08:08:24.709Z,2.75
2023-04-03T08:12:06.606Z,4.20
2023-04-03T08:15:48.469Z,2.70
2023-04-03T08:19:30.791Z,3.25
2023-04-03T08:23:12.641Z,2.80
2023-04-03T08:26:54.358Z,2.80
2023-04-03T08:30:37.018Z,2.58
2023-04-03T08:34:20.041Z,2.35
2023-04-03T08:38:01.954Z,2.55
2023-04-03T08:41:47.400Z,2.60
2023-04-03T08:45:51.264Z,2.80
2023-04-03T08:49:52.398Z,2.60
2023-04-03T08:53:40.178Z,2.55
2023-04-03T08:57:30.735Z,2.85
2023-04-03T09:01:28.521Z,2.75
2023-04-03T09:05:14.380Z,2.55
2023-04-03T09:09:30.088Z,3.05
2023-04-03T09:13:33.861Z,2.63
2023-04-03T09:17:33.886Z,3.20
2023-04-03T09:21:24.092Z,3.00
2023-04-03T09:25:18.057Z,3.15
2023-04-03T09:29:05.273Z,3.20
2023-04-03T09:32:48.513Z,4.93
2023-04-03T09:36:46.384Z,3.58
2023-04-03T09:40:29.069Z,4.15
2023-04-03T09:44:26.599Z,4.00
2023-04-03T09:48:20.989Z,3.77
2023-04-03T09:52:20.736Z,5.85
2023-04-03T09:56:05.793Z,4.47
2023-04-03T10:00:02.675Z,4.43
2023-04-03T10:03:47.576Z,4.60
2023-04-03T10:07:38.640Z,4.35
2023-04-03T10:11:20.392Z,4.60
2023-04-03T10:15:02.430Z,5.15
2023-04-03T10:18:47.416Z,4.53
2023-04-03T10:23:03.271Z,4.40
2023-04-03T10:26:59.235Z,4.57
2023-04-03T10:30:59.368Z,4.70
2023-04-03T10:34:49.092Z,4.20
2023-04-03T10:39:02.155Z,5.00
2023-04-03T10:42:56.291Z,4.70
2023-04-03T10:47:01.467Z,4.20
2023-04-03T10:50:58.600Z,20.38
2023-04-03T10:54:47.882Z,4.53
2023-04-03T10:58:37.849Z,5.63
2023-04-03T11:02:31.815Z,5.25
2023-04-03T11:06:17.260Z,5.00
2023-04-03T11:10:20.403Z,5.00
2023-04-03T11:14:28.780Z,5.63
2023-04-03T11:18:33.933Z,4.75
2023-04-03T11:22:28.200Z,5.30
2023-04-03T11:26:15.731Z,5.80
2023-04-03T11:29:58.671Z,5.70
2023-04-03T11:34:09.703Z,5.10
2023-04-03T11:37:55.200Z,5.25
2023-04-03T11:41:37.113Z,5.05
2023-04-03T11:45:25.662Z,4.93
2023-04-03T11:49:45.861Z,5.00
2023-04-03T11:53:33.912Z,5.07
2023-04-03T11:58:02.855Z,4.93
2023-04-03T12:01:59.534Z,4.53
2023-04-03T12:05:41.870Z,5.00
2023-04-03T12:09:26.539Z,4.38
2023-04-03T12:13:17.674Z,4.03
2023-04-03T12:16:59.572Z,3.70
2023-04-03T12:20:55.282Z,3.60
2023-04-03T12:24:46.245Z,3.60
2023-04-03T12:28:28.557Z,3.90
2023-04-03T12:32:28.842Z,3.60
2023-04-03T12:36:19.466Z,3.92
2023-04-03T12:40:44.331Z,3.90
2023-04-03T12:44:38.631Z,4.00
2023-04-03T12:48:26.228Z,3.20
2023-04-03T12:52:41.957Z,4.30
2023-04-03T12:56:33.761Z,4.13
2023-04-03T13:00:42.328Z,4.20
2023-04-03T13:04:24.728Z,4.28
2023-04-03T13:08:13.238Z,4.30
2023-04-03T13:12:14.168Z,4.50
2023-04-03T13:15:57.094Z,4.20
2023-04-03T13:19:40.504Z,4.88
2023-04-03T13:23:23.902Z,4.95
2023-04-03T13:27:06.683Z,5.20
2023-04-03T13:31:00.583Z,5.13
2023-04-03T13:34:46.660Z,4.90
2023-04-03T13:38:34.608Z,4.27
2023-04-03T13:42:23.766Z,4.82
2023-04-03T13:46:10.396Z,4.95
2023-04-03T13:50:13.759Z,5.10
2023-04-03T13:54:01.613Z,5.40
2023-04-03T13:58:03.736Z,4.53
2023-04-03T14:01:49.501Z,4.70
2023-04-03T14:05:31.378Z,5.10
2023-04-03T14:09:13.903Z,4.88
2023-04-03T14:12:56.527Z,4.60
2023-04-03T14:16:42.125Z,4.65
2023-04-03T14:20:26.762Z,4.93
2023-04-03T14:24:08.938Z,4.90
2023-04-03T14:27:52.577Z,4.28
2023-04-03T14:31:34.425Z,3.85
2023-04-03T14:35:16.602Z,4.20
2023-04-03T14:38:59.357Z,3.90
2023-04-03T14:42:41.295Z,3.90
2023-04-03T14:46:54.370Z,3.90
2023-04-03T14:50:37.789Z,3.95
2023-04-03T14:54:26.348Z,4.13
2023-04-03T14:58:17.576Z,4.13
2023-04-03T15:01:59.444Z,4.00
2023-04-03T15:05:41.715Z,4.50
2023-04-03T15:09:26.682Z,4.13
2023-04-03T15:13:11.490Z,4.50
2023-04-03T15:16:53.255Z,4.60
2023-04-03T15:20:35.020Z,4.28
2023-04-03T15:24:16.727Z,4.22
2023-04-03T15:27:58.806Z,8.13
2023-04-03T15:31:40.691Z,4.38
2023-04-03T15:35:22.548Z,5.00
2023-04-03T15:39:04.875Z,4.30
2023-04-03T15:42:46.736Z,4.13
2023-04-03T15:46:28.566Z,4.35
2023-04-03T15:50:10.817Z,4.28
2023-04-03T15:53:52.556Z,4.20
2023-04-03T16:01:21.046Z,4.80
2023-04-03T16:05:03.371Z,4.30
2023-04-03T16:08:45.884Z,4.20
2023-04-03T16:12:27.719Z,4.18
2023-04-03T16:16:10.304Z,4.18
2023-04-03T16:19:52.308Z,4.10
2023-04-03T16:23:34.085Z,4.07
2023-04-03T16:27:16.305Z,4.38
2023-04-03T16:30:58.425Z,4.15
2023-04-03T16:34:41.601Z,3.72
2023-04-03T16:38:24.460Z,4.47
2023-04-03T16:42:06.229Z,4.55
2023-04-03T16:45:48.015Z,4.22
2023-04-03T16:49:33.746Z,3.95
2023-04-03T16:53:16.401Z,4.18
2023-04-03T16:56:58.256Z,4.00
2023-04-03T17:00:40.267Z,3.92
2023-04-03T17:04:22.129Z,4.15
2023-04-03T17:08:03.856Z,4.32
2023-04-03T17:11:48.590Z,3.80
2023-04-03T17:15:31.298Z,3.90
2023-04-03T17:19:13.154Z,3.85
2023-04-03T17:22:54.894Z,3.30
2023-04-03T17:26:37.523Z,3.30
2023-04-03T17:30:19.367Z,3.75
2023-04-03T17:34:03.913Z,3.85
2023-04-03T17:37:45.709Z,5.28
2023-04-03T17:41:27.430Z,4.35
2023-04-03T17:45:09.733Z,4.05
2023-04-03T17:48:52.560Z,3.90
2023-04-03T17:52:34.326Z,3.58
2023-04-03T17:56:22.852Z,4.60
2023-04-03T18:00:05.487Z,4.47
2023-04-03T18:03:48.683Z,4.60
2023-04-03T18:07:30.744Z,4.15
2023-04-03T18:11:13.292Z,4.30
2023-04-03T18:14:55.076Z,5.28
2023-04-03T18:18:36.974Z,5.22
2023-04-03T18:22:21.083Z,4.80
2023-04-03T18:26:04.090Z,4.90
2023-04-03T18:29:50.440Z,5.07
2023-04-03T18:33:32.265Z,6.13
2023-04-03T18:37:15.359Z,6.10
2023-04-03T18:40:57.243Z,6.80
2023-04-03T18:44:40.670Z,6.72
2023-04-03T18:48:22.372Z,6.85
2023-04-03T18:52:04.649Z,7.65
2023-04-03T18:55:46.800Z,8.13
2023-04-03T18:59:28.769Z,8.60
2023-04-03T19:03:13.258Z,9.13
2023-04-03T19:06:55.210Z,13.02
2023-04-03T19:10:36.948Z,11.32
2023-04-03T19:14:18.661Z,12.18
2023-04-03T19:18:00.708Z,14.05
2023-04-03T19:21:42.710Z,15.75
2023-04-03T19:25:25.216Z,15.50
2023-04-03T19:29:07.577Z,16.60
2023-04-03T19:32:49.287Z,17.50
2023-04-03T19:36:32.176Z,16.70
2023-04-03T19:40:14.002Z,16.23
2023-04-03T19:43:56.887Z,15.57
2023-04-03T19:47:38.792Z,16.25
2023-04-03T19:51:20.906Z,15.27
2023-04-03T19:55:02.679Z,13.88
2023-04-03T19:58:44.709Z,13.32
2023-04-03T20:02:26.499Z,12.20
2023-04-03T20:06:08.206Z,10.73
2023-04-03T20:09:49.923Z,9.18
2023-04-03T20:13:33.162Z,8.57
2023-04-03T20:17:15.157Z,6.80
2023-04-03T20:21:00.047Z,5.28
2023-04-03T20:24:42.687Z,5.30
2023-04-03T20:28:24.886Z,5.05
2023-04-03T20:32:07.467Z,4.95
2023-04-03T20:35:50.597Z,4.93
2023-04-03T20:39:32.548Z,5.93
2023-04-03T20:43:14.365Z,6.30
2023-04-03T20:46:56.655Z,5.45
2023-04-03T20:50:38.724Z,5.90
2023-04-03T20:54:20.897Z,6.57
2023-04-03T20:58:03.536Z,7.68
2023-04-03T21:01:46.893Z,8.95
2023-04-03T21:05:30.385Z,9.93
2023-04-03T21:09:50.247Z,9.70
2023-04-03T21:14:09.461Z,11.88
2023-04-03T21:18:32.455Z,9.82
2023-04-03T21:22:16.321Z,9.50
2023-04-03T21:26:01.913Z,9.10
2023-04-03T21:29:43.739Z,8.40
2023-04-03T21:33:26.099Z,6.82
2023-04-03T21:37:09.410Z,6.60
2023-04-03T21:40:52.177Z,5.80
2023-04-03T21:44:33.992Z,5.72
2023-04-03T21:48:18.027Z,6.10
2023-04-03T21:51:59.715Z,5.18
2023-04-03T21:55:41.797Z,4.63
2023-04-03T21:59:23.819Z,4.80
2023-04-03T22:03:10.515Z,4.20
2023-04-03T22:06:53.406Z,4.07
2023-04-03T22:10:35.523Z,3.92
2023-04-03T22:14:17.966Z,3.53
2023-04-03T22:18:00.300Z,4.47
2023-04-03T22:21:43.452Z,5.10
2023-04-03T22:25:25.632Z,4.30
2023-04-03T22:29:07.352Z,4.18
2023-04-03T22:32:49.920Z,4.32
2023-04-03T22:36:32.161Z,5.53
2023-04-03T22:40:14.150Z,5.30
2023-04-03T22:43:57.712Z,5.00
2023-04-03T22:47:39.490Z,4.53
2023-04-03T22:51:21.272Z,4.00
2023-04-03T22:55:18.272Z,4.00
2023-04-03T22:59:00.980Z,3.50
2023-04-03T23:02:43.340Z,3.72
2023-04-03T23:06:26.592Z,3.70
2023-04-03T23:10:08.722Z,3.80
2023-04-03T23:13:50.498Z,3.28
2023-04-03T23:17:32.694Z,3.22
2023-04-03T23:21:14.460Z,3.03
2023-04-03T23:24:56.350Z,3.13
2023-04-03T23:28:38.262Z,2.90
2023-04-03T23:32:19.958Z,3.17
2023-04-03T23:36:07.841Z,2.88
2023-04-03T23:39:49.635Z,3.17
2023-04-03T23:43:32.067Z,3.05
2023-04-03T23:47:13.955Z,3.20
2023-04-03T23:50:55.685Z,2.83
2023-04-03T23:54:37.481Z,3.53
2023-04-03T23:58:19.243Z,3.20
